NCAR-RAP Real-Time Weather Data

Output produced by METARs form (24 January 2022  22:09 UTC)
found at http://weather.rap.ucar.edu/surface/
 
KMCI 242153Z 34018G24KT 10SM BKN043 BKN050 07/M03 A2989 RMK AO2 PK WND 33027/2058 SLP124 T00671028
KMCI 242053Z 36014KT 10SM SCT039 SCT085 SCT160 09/M01 A2986 RMK AO2 PK WND 35028/2022 SLP112 T00891006 52024
KMCI 241953Z 35020KT 10SM SCT038 SCT140 09/M02 A2983 RMK AO2 PK WND 35027/1940 SLP102 T00891017
KMCI 241853Z 34015G24KT 10SM SCT036 SCT150 SCT200 11/00 A2981 RMK AO2 PK WND 35030/1807 SLP095 T01060000
KMCI 241753Z 36016KT 10SM FEW090 FEW150 SCT200 13/M01 A2978 RMK AO2 SLP085 T01281011 10128 20061 53021
KMCI 241653Z 33009KT 10SM FEW150 SCT200 11/M02 A2976 RMK AO2 SLP080 T01111017
KMCI 241553Z 27005KT 10SM SCT090 BKN150 08/M02 A2973 RMK AO2 SLP068 T00831017
KMCI 241458Z 29005KT 10SM SCT004 BKN120 07/M02 A2972 RMK AO2 T00721017
KMCI 241453Z 30005KT 10SM OVC120 07/M02 A2972 RMK AO2 SLP066 T00721017 53010
KMCI 241353Z 28006KT 10SM R19R/2400VP6000FT SCT075 OVC110 07/M02 A2971 RMK AO2 SLP062 T00671017